Time;durP1;ratioP1;P1;durP2;ratioP2;P2;SDS_P1;SDS_P2;PMS_P1;PMS_P2;Temp;Humidity;BMP_temperature;BMP_pressure;BME280_temperature;BME280_humidity;BME280_pressure;Samples;Min_cycle;Max_cycle;Signal;HPM_P1;HPM_P2
2022/04/16 00:02:04;;;;;;;5.25;3.10;;;10.70;63.60;;;9.56;64.54;96868.13;4909905;28;20451;-73
2022/04/16 00:04:31;;;;;;;3.50;2.80;;;10.70;63.50;;;9.54;64.29;96861.38;4883288;28;20457;-73
2022/04/16 00:06:57;;;;;;;4.65;2.75;;;10.70;62.90;;;9.49;63.84;96869.72;4891996;28;20305;-72
2022/04/16 00:09:24;;;;;;;3.45;2.53;;;10.60;63.40;;;9.46;64.58;96867.44;4859648;28;20463;-72
2022/04/16 00:11:50;;;;;;;3.45;2.60;;;10.60;63.80;;;9.43;64.35;96868.59;4896284;28;20493;-72
2022/04/16 00:14:16;;;;;;;4.68;3.00;;;10.60;63.80;;;9.39;64.04;96869.91;4898731;28;20391;-72
2022/04/16 00:16:44;;;;;;;4.13;2.95;;;10.50;63.70;;;9.37;63.62;96868.41;4875722;28;20446;-70
2022/04/16 00:19:11;;;;;;;4.32;3.15;;;10.50;63.80;;;9.34;65.07;96866.13;4915379;28;20315;-71
2022/04/16 00:21:38;;;;;;;3.63;2.78;;;10.50;63.80;;;9.32;64.31;96858.41;4893938;28;20352;-72
2022/04/16 00:24:05;;;;;;;3.20;2.83;;;10.50;64.10;;;9.28;64.31;96858.88;4883728;28;20344;-73
2022/04/16 00:26:31;;;;;;;4.07;3.10;;;10.50;64.10;;;9.26;63.72;96868.72;4938697;28;20780;-71
2022/04/16 00:28:58;;;;;;;5.68;3.17;;;10.40;64.00;;;9.21;65.09;96870.03;4884986;28;20454;-71
2022/04/16 00:31:25;;;;;;;5.10;3.22;;;10.40;64.00;;;9.18;65.20;96857.22;4895530;28;20805;-71
2022/04/16 00:33:52;;;;;;;3.40;2.70;;;10.30;64.20;;;9.14;64.29;96852.47;4898367;28;20038;-72
2022/04/16 00:36:18;;;;;;;4.95;3.20;;;10.30;64.00;;;9.10;63.83;96849.34;4913720;28;20568;-71
2022/04/16 00:38:44;;;;;;;4.53;3.15;;;10.30;64.20;;;9.07;65.32;96849.69;4889017;28;20273;-72
2022/04/16 00:41:12;;;;;;;3.55;2.78;;;10.20;64.30;;;9.03;64.22;96852.75;4912082;28;20452;-72
2022/04/16 00:43:38;;;;;;;3.17;2.70;;;10.20;64.30;;;8.97;65.10;96843.72;4923592;28;20363;-72
2022/04/16 00:46:05;;;;;;;3.95;2.88;;;10.10;64.40;;;8.93;65.36;96850.28;4913842;28;20818;-72
2022/04/16 00:48:31;;;;;;;4.13;2.70;;;10.00;64.40;;;8.89;64.65;96846.34;4898426;28;20311;-72
2022/04/16 00:50:57;;;;;;;6.07;3.03;;;10.00;64.50;;;8.76;65.27;96836.28;4905051;28;20300;-72
2022/04/16 00:53:29;;;;;;;4.15;2.90;;;9.90;64.70;;;8.75;65.16;96844.31;4914441;28;20600;-72
2022/04/16 00:55:56;;;;;;;4.55;2.67;;;9.90;65.00;;;8.71;64.89;96840.38;4908097;28;20420;-72
2022/04/16 00:58:25;;;;;;;3.53;2.42;;;9.90;65.20;;;8.62;65.18;96836.94;4985443;23;20044;-65
2022/04/16 01:00:53;;;;;;;3.55;2.63;;;9.70;65.60;;;8.57;65.41;96837.38;5041833;28;20033;-64
2022/04/16 01:03:21;;;;;;;4.63;2.75;;;9.70;65.80;;;8.52;65.84;96833.59;5053546;28;20040;-65
2022/04/16 01:05:49;;;;;;;4.28;3.03;;;9.60;65.80;;;8.44;66.14;96846.69;5040439;28;20037;-64
2022/04/16 01:08:19;;;;;;;4.65;2.90;;;9.50;66.20;;;8.38;66.01;96849.94;5032689;28;20029;-65
2022/04/16 01:10:46;;;;;;;4.10;2.90;;;9.40;66.40;;;8.33;65.79;96842.47;5018571;28;20037;-65
2022/04/16 01:13:12;;;;;;;4.95;3.25;;;9.50;66.60;;;8.28;66.02;96842.97;5028690;28;20029;-64
2022/04/16 01:15:39;;;;;;;3.67;2.70;;;9.40;66.70;;;8.25;66.51;96837.22;5001835;28;20112;-64
2022/04/16 01:18:07;;;;;;;5.10;3.22;;;9.40;66.90;;;8.23;66.41;96839.16;5034387;28;20195;-65
2022/04/16 01:20:35;;;;;;;4.38;2.83;;;9.40;66.80;;;8.18;66.13;96841.44;5052305;28;20037;-65
2022/04/16 01:23:02;;;;;;;3.47;3.00;;;9.30;66.90;;;8.15;66.45;96842.59;5029812;28;20049;-65
2022/04/16 01:25:28;;;;;;;4.35;2.83;;;9.40;67.00;;;8.12;66.63;96839.41;4985801;22;20908;-66
2022/04/16 01:27:54;;;;;;;3.33;2.80;;;9.30;67.10;;;8.09;66.49;96847.59;4902983;28;20746;-66
2022/04/16 01:30:22;;;;;;;4.63;3.40;;;9.30;67.10;;;8.03;66.99;96838.56;4888762;28;20319;-66
2022/04/16 01:32:52;;;;;;;4.50;3.20;;;9.20;67.10;;;8.01;66.81;96839.69;4870251;28;20628;-66
2022/04/16 01:35:18;;;;;;;3.40;3.00;;;9.20;67.20;;;7.95;67.86;96841.97;4883087;28;20498;-66
2022/04/16 01:37:44;;;;;;;5.05;3.30;;;9.10;67.40;;;7.92;67.18;96839.66;4900514;28;20771;-66
2022/04/16 01:40:12;;;;;;;4.38;3.05;;;9.10;67.60;;;7.91;67.35;96845.84;4870116;28;20455;-67
2022/04/16 01:42:38;;;;;;;3.97;3.10;;;9.20;67.50;;;7.84;67.35;96842.22;4902948;28;20343;-66
2022/04/16 01:45:06;;;;;;;4.57;3.20;;;9.10;67.50;;;7.83;67.16;96847.59;4900281;28;20882;-67
2022/04/16 01:47:36;;;;;;;4.43;3.00;;;9.10;67.70;;;7.79;67.33;96841.84;4901737;28;20356;-66
2022/04/16 01:50:05;;;;;;;4.80;3.47;;;9.00;67.80;;;7.77;67.83;96843.81;4902268;28;20375;-66
2022/04/16 01:52:32;;;;;;;4.78;3.30;;;9.00;68.10;;;7.74;67.68;96844.13;4893281;28;20690;-66
2022/04/16 01:54:59;;;;;;;5.00;3.67;;;8.90;68.20;;;7.70;67.97;96847.19;4875698;28;20738;-66
2022/04/16 01:57:25;;;;;;;4.63;3.65;;;9.00;68.20;;;7.65;68.26;96845.84;4884906;28;20371;-65
2022/04/16 01:59:52;;;;;;;5.45;3.60;;;8.90;68.20;;;7.62;68.55;96847.94;4901053;28;20329;-66
2022/04/16 02:02:19;;;;;;;5.47;3.35;;;8.80;68.30;;;7.58;68.06;96854.47;4890003;28;20479;-66
2022/04/16 02:04:46;;;;;;;5.75;3.53;;;8.80;68.40;;;7.54;68.89;96853.94;4899793;28;20477;-65
2022/04/16 02:07:12;;;;;;;6.32;3.53;;;8.80;68.50;;;7.51;67.89;96848.19;4883245;28;20782;-66
2022/04/16 02:09:38;;;;;;;5.82;4.20;;;8.80;68.60;;;7.49;68.40;96850.13;4888998;28;20337;-65
2022/04/16 02:12:05;;;;;;;6.05;3.85;;;8.70;68.70;;;7.45;68.47;96848.78;4890996;28;20482;-66
2022/04/16 02:14:31;;;;;;;5.00;3.88;;;8.70;68.90;;;7.41;68.90;96840.41;4901573;28;20750;-66
2022/04/16 02:16:58;;;;;;;6.13;3.67;;;8.60;68.70;;;7.38;68.74;96835.47;4901674;28;20417;-66
2022/04/16 02:19:24;;;;;;;6.90;3.85;;;8.60;68.90;;;7.34;68.51;96832.34;4888738;28;20691;-67
2022/04/16 02:21:50;;;;;;;4.68;3.67;;;8.60;69.10;;;7.31;68.85;96832.66;4885256;28;20289;-66
2022/04/16 02:24:17;;;;;;;5.22;3.75;;;8.60;69.00;;;7.29;69.25;96831.97;4931260;28;20184;-66
2022/04/16 02:26:46;;;;;;;5.88;3.65;;;8.60;69.10;;;7.25;69.51;96827.19;4885024;28;20359;-66
2022/04/16 02:29:13;;;;;;;5.43;4.10;;;8.50;69.30;;;7.22;69.15;96828.28;4884929;28;20616;-66
2022/04/16 02:31:39;;;;;;;6.47;4.03;;;8.50;69.40;;;7.17;68.90;96822.69;4900788;28;20523;-65
2022/04/16 02:34:07;;;;;;;5.68;4.20;;;8.40;69.50;;;7.12;69.95;96824.13;4916137;28;20482;-66
2022/04/16 02:36:36;;;;;;;5.45;3.65;;;8.40;69.80;;;7.07;70.67;96824.59;4912406;28;20647;-66
2022/04/16 02:39:02;;;;;;;4.93;3.60;;;8.30;70.10;;;7.02;69.26;96822.41;4929375;28;20568;-66
2022/04/16 02:41:28;;;;;;;7.10;3.97;;;8.30;70.10;;;6.99;69.58;96832.34;4878353;28;20438;-66
2022/04/16 02:43:54;;;;;;;5.70;4.00;;;8.20;70.20;;;6.97;69.71;96829.03;4894673;28;20369;-66
2022/04/16 02:49:08;;;;;;;6.22;4.30;;;8.20;70.50;;;6.93;69.88;96822.47;4879597;28;20568;-66
2022/04/16 02:51:35;;;;;;;6.28;4.28;;;8.20;70.50;;;6.91;69.80;96824.41;4878769;28;20352;-66
2022/04/16 02:54:01;;;;;;;6.95;4.30;;;8.20;70.60;;;6.89;70.24;96810.66;4896434;28;20543;-66
2022/04/16 02:56:27;;;;;;;5.57;4.18;;;8.20;70.50;;;6.86;70.27;96817.03;4901171;28;20438;-66
2022/04/16 02:58:53;;;;;;;5.72;4.60;;;8.20;70.60;;;6.83;70.42;96819.94;4887605;28;20441;-67
2022/04/16 03:01:19;;;;;;;6.85;4.13;;;8.10;70.80;;;6.81;71.32;96821.06;4883763;28;20220;-66
2022/04/16 03:03:45;;;;;;;6.32;4.47;;;8.10;70.80;;;6.78;70.29;96821.31;4900432;28;20498;-67
2022/04/16 03:06:11;;;;;;;8.90;6.75;;;8.00;71.10;;;6.76;70.41;96822.28;4884301;28;20380;-67
2022/04/16 03:08:37;;;;;;;24.83;18.52;;;8.00;71.30;;;6.75;71.81;96825.06;4880051;28;20358;-67
2022/04/16 03:11:04;;;;;;;28.20;19.33;;;8.10;72.20;;;6.74;71.08;96824.22;4882389;28;20377;-67
2022/04/16 03:13:34;;;;;;;12.45;8.65;;;8.10;71.90;;;6.74;71.67;96828.63;4911467;28;20461;-67
2022/04/16 03:18:45;;;;;;;10.00;7.30;;;8.10;71.60;;;6.70;71.30;96828.13;4888321;28;20390;-67
2022/04/16 03:21:12;;;;;;;8.43;6.45;;;8.10;71.40;;;6.67;71.66;96823.19;4908786;28;20208;-64
2022/04/16 03:23:38;;;;;;;9.48;8.00;;;8.00;71.50;;;6.65;72.31;96832.16;4883554;28;20330;-64
2022/04/16 03:26:04;;;;;;;8.02;6.18;;;8.00;71.60;;;6.63;72.06;96824.47;4902677;28;20385;-64
2022/04/16 03:28:32;;;;;;;13.57;8.27;;;7.90;71.60;;;6.59;72.52;96830.94;4884653;28;20356;-64
2022/04/16 03:30:58;;;;;;;13.55;9.68;;;7.90;71.80;;;6.56;72.66;96841.66;4885468;28;20358;-64
2022/04/16 03:33:24;;;;;;;7.75;6.80;;;7.90;71.90;;;6.52;73.34;96829.88;4867015;28;20455;-64
2022/04/16 03:35:51;;;;;;;11.40;8.77;;;7.90;71.90;;;6.51;73.17;96825.59;4885463;28;20292;-65
2022/04/16 03:38:18;;;;;;;9.13;7.18;;;7.90;72.20;;;6.47;72.87;96834.72;4903813;28;20734;-64
2022/04/16 03:40:44;;;;;;;9.07;6.72;;;7.80;72.20;;;6.44;72.69;96832.41;4900694;28;20323;-65
2022/04/16 03:43:11;;;;;;;13.48;9.10;;;7.80;72.30;;;6.43;73.29;96830.75;4895964;28;20351;-65
2022/04/16 03:45:37;;;;;;;8.95;6.22;;;7.80;72.30;;;6.42;73.37;96818.66;4915245;28;20375;-64
2022/04/16 03:48:09;;;;;;;6.40;5.70;;;7.90;72.20;;;6.43;73.62;96835.97;4898862;28;20556;-64
2022/04/16 03:50:36;;;;;;;8.40;5.22;;;7.80;72.30;;;6.43;73.74;96822.91;4915922;28;20443;-64
2022/04/16 03:53:03;;;;;;;6.07;5.15;;;7.80;72.50;;;6.44;74.37;96832.41;4889452;28;20821;-64
2022/04/16 04:01:02;;;;;;;6.78;4.60;;;7.90;72.40;;;6.43;73.42;96831.56;4880457;28;20810;-65
2022/04/16 04:03:28;;;;;;;5.65;5.05;;;7.90;72.50;;;6.45;74.74;96836.66;4910553;28;20392;-65
2022/04/16 04:05:55;;;;;;;7.78;4.80;;;7.90;72.60;;;6.45;74.39;96834.88;4932859;28;20212;-68
2022/04/16 04:08:22;;;;;;;6.45;4.90;;;7.90;72.60;;;6.46;74.00;96835.69;4905213;28;20354;-65
2022/04/16 04:10:48;;;;;;;6.75;4.53;;;7.90;72.80;;;6.46;74.55;96830.47;4911946;28;20359;-65
2022/04/16 04:13:15;;;;;;;8.00;4.55;;;7.90;72.90;;;6.48;74.42;96836.34;4919732;28;20296;-65
2022/04/16 04:15:41;;;;;;;6.70;4.95;;;7.90;72.90;;;6.50;74.41;96837.03;4890029;28;20427;-66
2022/04/16 04:18:08;;;;;;;6.47;5.07;;;8.00;72.80;;;6.50;73.88;96837.03;4910635;28;20506;-65
2022/04/16 04:20:36;;;;;;;6.30;4.57;;;8.00;72.70;;;6.54;74.53;96842.78;4903763;28;20320;-66
2022/04/16 04:23:03;;;;;;;9.30;5.65;;;8.10;72.40;;;6.55;74.63;96839.19;4886232;28;20185;-65
2022/04/16 04:25:30;;;;;;;8.35;5.10;;;8.10;72.40;;;6.56;74.22;96846.91;4886776;28;20367;-66
2022/04/16 04:27:56;;;;;;;19.17;13.27;;;8.10;72.40;;;6.59;73.93;96846.63;4887078;28;20359;-65
2022/04/16 04:30:22;;;;;;;7.22;6.05;;;8.10;72.20;;;6.60;73.84;96848.28;4908864;28;20290;-66
2022/04/16 04:32:48;;;;;;;7.85;5.65;;;8.10;72.30;;;6.60;74.58;96855.28;4894492;28;20348;-66
2022/04/16 04:35:15;;;;;;;7.47;5.82;;;8.10;72.20;;;6.62;74.22;96862.03;4902247;28;20041;-67
2022/04/16 04:37:42;;;;;;;7.60;4.90;;;8.10;72.20;;;6.64;73.82;96857.47;4903794;28;20553;-67
2022/04/16 04:40:08;;;;;;;6.75;5.03;;;8.20;72.20;;;6.67;75.03;96862.41;4892885;28;20821;-67
2022/04/16 04:42:35;;;;;;;6.68;5.13;;;8.30;72.20;;;6.67;75.02;96865.00;4887631;28;20204;-67
2022/04/16 04:45:12;;;;;;;5.90;5.28;;;8.20;72.20;;;6.69;75.52;96868.31;4917457;28;20038;-66
2022/04/16 04:47:38;;;;;;;6.50;5.05;;;8.20;72.10;;;6.70;74.15;96869.13;4983710;28;20569;-67
2022/04/16 04:50:05;;;;;;;6.55;5.25;;;8.20;71.80;;;6.72;74.48;96875.84;4983729;28;20084;-67
2022/04/16 04:52:31;;;;;;;8.13;5.68;;;8.20;71.90;;;6.74;74.70;96870.47;4984057;28;20045;-69
2022/04/16 04:54:57;;;;;;;6.93;5.10;;;8.30;71.90;;;6.75;74.98;96872.94;4966366;28;20454;-71
2022/04/16 04:57:23;;;;;;;6.10;4.82;;;8.40;71.90;;;6.80;74.34;96874.31;4888026;28;20362;-66
2022/04/16 04:59:49;;;;;;;6.32;5.15;;;8.40;71.60;;;6.85;74.20;96874.69;4903199;28;20208;-67
2022/04/16 05:02:16;;;;;;;6.97;5.43;;;8.50;71.70;;;6.86;75.17;96869.31;4916366;28;20288;-69
2022/04/16 05:04:42;;;;;;;6.10;5.13;;;8.50;71.90;;;6.91;75.68;96868.88;4896528;28;20332;-66
2022/04/16 05:07:09;;;;;;;8.05;4.78;;;8.60;71.90;;;6.96;74.46;96864.84;4901497;28;20354;-67
2022/04/16 05:09:36;;;;;;;7.88;4.93;;;8.60;71.70;;;6.99;74.67;96874.19;4898213;28;20316;-69
2022/04/16 05:12:03;;;;;;;5.68;5.07;;;8.60;71.80;;;7.04;75.08;96866.72;4901439;28;20489;-71
2022/04/16 05:14:29;;;;;;;6.90;4.88;;;8.70;71.40;;;7.08;74.68;96873.31;4906323;28;20212;-70
2022/04/16 05:16:55;;;;;;;6.28;4.97;;;8.70;71.40;;;7.10;74.83;96884.44;4916622;28;20484;-70
2022/04/16 05:19:21;;;;;;;6.25;4.68;;;8.80;70.90;;;7.13;74.75;96883.31;4882428;28;20346;-70
2022/04/16 05:21:48;;;;;;;5.88;5.25;;;8.80;71.40;;;7.18;75.34;96879.28;4902936;28;20316;-70
2022/04/16 05:24:14;;;;;;;6.93;5.07;;;8.90;71.40;;;7.24;74.70;96886.56;4889142;28;20292;-70
2022/04/16 05:26:40;;;;;;;6.70;5.28;;;8.90;70.90;;;7.28;75.08;96889.69;4900651;28;20364;-69
2022/04/16 05:29:06;;;;;;;8.32;5.07;;;8.90;71.10;;;7.31;74.39;96892.84;4899706;28;20364;-73
2022/04/16 05:31:33;;;;;;;7.47;4.90;;;9.00;71.20;;;7.34;74.45;96895.16;4917819;28;20675;-71
2022/04/16 05:36:45;;;;;;;6.63;5.22;;;9.10;71.20;;;7.43;74.45;96887.38;4892172;28;20207;-70
2022/04/16 05:39:11;;;;;;;7.78;5.20;;;9.10;71.20;;;7.46;75.20;96887.88;4911090;28;20351;-70
2022/04/16 05:41:37;;;;;;;6.18;5.28;;;9.10;71.50;;;7.53;75.62;96886.34;4908044;28;20403;-73
2022/04/16 05:44:04;;;;;;;6.88;5.10;;;9.20;71.60;;;7.58;75.08;96891.94;4914800;28;20634;-69
2022/04/16 05:46:31;;;;;;;6.30;5.00;;;9.30;71.50;;;7.63;75.31;96888.84;4907822;28;20595;-70
2022/04/16 05:48:57;;;;;;;6.32;5.35;;;9.30;71.40;;;7.68;75.60;96891.84;4902559;28;20424;-69
2022/04/16 05:51:23;;;;;;;6.93;5.28;;;9.40;71.50;;;7.70;75.02;96889.91;4906667;28;20597;-69
2022/04/16 05:53:49;;;;;;;7.95;5.70;;;9.40;71.90;;;7.73;75.72;96888.78;4901532;28;20212;-70
2022/04/16 05:56:16;;;;;;;8.48;5.35;;;9.40;71.50;;;7.78;75.53;96886.53;4894063;28;20299;-71
2022/04/16 05:58:42;;;;;;;6.95;6.25;;;9.50;71.60;;;7.78;75.76;96889.97;4888627;28;20371;-70
2022/04/16 06:01:09;;;;;;;7.43;5.60;;;9.40;71.70;;;7.80;75.30;96900.28;4894575;28;20328;-71
2022/04/16 06:03:41;;;;;;;7.80;6.03;;;9.40;71.70;;;7.82;75.96;96893.09;4886540;28;20352;-71
2022/04/16 06:06:10;;;;;;;7.47;5.68;;;9.50;71.70;;;7.87;76.68;96899.53;4905483;28;20451;-66
2022/04/16 06:08:37;;;;;;;7.53;5.65;;;9.60;71.60;;;7.89;75.96;96899.38;4888752;28;20355;-66
2022/04/16 06:11:04;;;;;;;7.05;5.85;;;9.60;71.40;;;7.90;75.99;96906.25;4885083;28;20493;-68
2022/04/16 06:13:30;;;;;;;7.65;5.75;;;9.60;71.50;;;7.92;75.54;96905.16;4901891;28;20703;-68
2022/04/16 06:15:59;;;;;;;7.22;6.00;;;9.60;71.40;;;7.98;76.48;96908.94;4900616;28;20319;-67
2022/04/16 06:18:27;;;;;;;13.70;10.70;;;9.70;71.60;;;8.03;76.05;96901.44;4890389;28;20469;-67
2022/04/16 06:20:54;;;;;;;9.23;7.20;;;9.80;71.40;;;8.10;76.28;96907.72;4901481;28;20355;-67
2022/04/16 06:23:23;;;;;;;8.07;5.22;;;9.90;70.90;;;8.14;75.85;96914.28;4905648;28;20423;-68
2022/04/16 06:25:49;;;;;;;7.38;5.53;;;9.80;70.70;;;8.19;75.75;96916.47;4917764;28;20696;-67
2022/04/16 06:28:15;;;;;;;7.60;6.22;;;9.90;70.50;;;8.21;75.88;96915.34;4934411;28;20585;-67
2022/04/16 06:30:43;;;;;;;7.10;5.90;;;10.00;70.50;;;8.26;75.43;96922.72;4934225;28;20441;-67
2022/04/16 06:33:09;;;;;;;7.72;6.07;;;10.10;70.50;;;8.30;75.59;96926.69;4899797;28;20482;-69
2022/04/16 06:35:35;;;;;;;6.88;5.35;;;10.10;70.10;;;8.33;75.17;96918.50;4905148;28;20553;-68
2022/04/16 06:38:02;;;;;;;7.28;5.68;;;10.10;70.00;;;8.38;75.54;96925.97;4885918;28;20296;-71
2022/04/16 06:40:29;;;;;;;6.80;6.10;;;10.10;70.30;;;8.41;75.43;96921.22;4903065;28;20414;-70
2022/04/16 06:42:55;;;;;;;8.00;5.97;;;10.10;70.20;;;8.45;75.80;96921.72;4903485;28;20730;-70
2022/04/16 06:45:21;;;;;;;6.57;5.97;;;10.20;70.10;;;8.49;75.57;96915.19;4900202;28;20292;-66
2022/04/16 06:47:48;;;;;;;6.20;5.60;;;10.30;69.90;;;8.53;75.13;96924.38;4902196;28;20355;-67
2022/04/16 06:50:14;;;;;;;6.68;5.75;;;10.30;70.00;;;8.57;75.22;96925.72;4868857;28;20307;-65
2022/04/16 06:52:40;;;;;;;7.53;5.85;;;10.30;69.70;;;8.59;74.87;96919.34;4880324;28;20349;-63
2022/04/16 06:55:07;;;;;;;6.50;5.70;;;10.30;69.50;;;8.61;74.58;96923.63;4918074;28;20339;-65
2022/04/16 06:57:33;;;;;;;7.80;5.80;;;10.30;69.50;;;8.62;74.83;96923.47;4886617;28;20406;-65
2022/04/16 06:59:59;;;;;;;6.93;6.22;;;10.40;69.50;;;8.65;74.72;96922.34;4897617;28;20418;-71
2022/04/16 07:02:25;;;;;;;6.22;5.25;;;10.40;69.30;;;8.70;74.50;96935.78;4884542;28;20661;-70
2022/04/16 07:04:51;;;;;;;7.13;5.88;;;10.40;69.20;;;8.71;74.28;96929.56;4879067;28;20341;-71
2022/04/16 07:07:20;;;;;;;6.75;5.72;;;10.50;68.80;;;8.75;74.14;96933.50;4886600;28;20288;-74
2022/04/16 07:09:47;;;;;;;5.95;5.20;;;10.50;69.00;;;8.75;74.20;96938.75;4900445;28;20489;-68
2022/04/16 07:12:13;;;;;;;6.25;5.65;;;10.40;68.50;;;8.73;74.18;96936.28;4904587;28;20433;-66
2022/04/16 07:14:40;;;;;;;6.70;5.90;;;10.40;68.70;;;8.73;73.56;96941.53;4889420;28;20292;-66
2022/04/16 07:17:06;;;;;;;7.82;5.80;;;10.40;68.40;;;8.73;73.99;96951.22;4903112;28;20406;-66
2022/04/16 07:19:33;;;;;;;6.13;5.53;;;10.40;68.50;;;8.72;73.35;96954.81;4883833;28;20411;-67
2022/04/16 07:21:59;;;;;;;6.22;5.47;;;10.40;68.70;;;8.73;73.47;96957.28;4900531;28;20505;-66
2022/04/16 07:24:25;;;;;;;6.18;5.40;;;10.30;68.30;;;8.73;73.17;96959.09;4920748;28;20466;-68
2022/04/16 07:26:54;;;;;;;7.65;6.40;;;10.40;68.60;;;8.75;73.40;96954.50;4887542;28;20350;-67
2022/04/16 07:29:25;;;;;;;6.32;5.50;;;10.40;68.80;;;8.78;73.89;96969.91;4913999;28;20818;-65
2022/04/16 07:31:51;;;;;;;7.00;4.85;;;10.50;68.60;;;8.79;73.91;96966.31;4944358;28;20675;-67
2022/04/16 07:34:18;;;;;;;6.32;5.60;;;10.50;68.60;;;8.82;73.74;96960.75;4900279;28;20774;-65
2022/04/16 07:36:45;;;;;;;6.15;5.20;;;10.60;68.50;;;8.87;74.06;96961.13;4902830;28;20788;-65
2022/04/16 07:39:11;;;;;;;5.68;5.10;;;10.60;68.30;;;8.90;73.19;96963.44;4886593;28;20308;-65
2022/04/16 07:41:38;;;;;;;6.18;5.53;;;10.70;68.20;;;8.94;74.39;96956.88;4894289;28;20496;-70
2022/04/16 07:44:05;;;;;;;5.88;5.28;;;10.80;68.20;;;8.98;73.38;96966.09;4920640;28;20045;-69
2022/04/16 07:46:32;;;;;;;5.85;5.25;;;10.80;68.00;;;9.01;73.92;96960.53;4888334;28;20465;-67
2022/04/16 07:48:58;;;;;;;6.35;5.20;;;10.80;67.90;;;9.06;74.00;96958.25;4885776;28;20411;-69
2022/04/16 07:51:25;;;;;;;6.35;5.50;;;10.90;68.00;;;9.13;74.18;96959.25;4893243;28;20510;-67
2022/04/16 07:53:53;;;;;;;6.88;5.18;;;11.10;67.90;;;9.22;73.32;96962.72;4905095;28;20415;-69
2022/04/16 07:56:19;;;;;;;5.82;5.10;;;11.10;67.70;;;9.32;74.05;96962.63;4890895;28;20316;-69
2022/04/16 07:58:45;;;;;;;6.68;5.45;;;11.30;67.10;;;9.41;73.53;96966.88;4885715;28;20467;-66
2022/04/16 08:01:12;;;;;;;5.70;5.13;;;11.50;67.00;;;9.55;72.82;96968.09;4883345;28;20524;-67
2022/04/16 08:03:38;;;;;;;5.30;4.80;;;11.60;65.90;;;9.63;72.89;96966.28;4887285;28;20681;-66
2022/04/16 08:06:04;;;;;;;6.68;5.50;;;11.60;65.60;;;9.74;72.37;96966.00;4890864;28;20602;-65
2022/04/16 08:08:30;;;;;;;6.40;4.80;;;11.80;65.50;;;9.89;72.28;96967.97;4892148;28;20284;-63
2022/04/16 08:10:57;;;;;;;5.55;4.72;;;12.10;65.20;;;10.04;72.14;96974.22;4882452;28;20367;-66
2022/04/16 08:13:23;;;;;;;6.53;5.32;;;12.30;64.20;;;10.18;71.61;96963.03;4884334;28;20299;-68
2022/04/16 08:15:58;;;;;;;6.28;5.53;;;12.50;63.60;;;10.36;71.41;96974.22;4866678;28;20317;-68
2022/04/16 08:18:27;;;;;;;5.25;4.70;;;12.70;63.20;;;10.54;71.77;96965.34;4891780;28;20325;-68
2022/04/16 08:20:58;;;;;;;7.80;5.18;;;13.00;63.20;;;10.67;71.35;96965.66;4897453;28;20426;-72
2022/04/16 08:23:24;;;;;;;6.20;4.63;;;13.00;62.70;;;10.73;70.94;96967.59;4899555;28;20518;-71
2022/04/16 08:25:50;;;;;;;5.50;4.55;;;12.90;62.00;;;10.80;69.68;96976.44;4911086;28;20227;-72
2022/04/16 08:28:16;;;;;;;5.75;4.43;;;13.00;61.10;;;10.86;70.02;96975.75;4884301;28;20483;-71
2022/04/16 08:30:43;;;;;;;5.70;4.90;;;13.00;61.00;;;10.91;69.94;96973.47;4866789;28;20349;-71
2022/04/16 08:33:38;;;;;;;6.55;4.70;;;12.90;61.80;;;10.97;68.41;96969.34;4897979;28;20355;-71
2022/04/16 08:36:04;;;;;;;6.93;5.40;;;12.90;61.20;;;10.99;68.91;96975.25;4917677;28;20569;-70
2022/04/16 08:38:30;;;;;;;9.93;5.72;;;13.00;62.10;;;11.08;69.11;96979.47;4885230;28;20514;-70
2022/04/16 08:40:56;;;;;;;12.73;6.20;;;13.30;62.60;;;11.17;69.71;96972.38;4912571;28;20231;-72
2022/04/16 08:43:22;;;;;;;6.57;4.95;;;13.40;62.70;;;11.28;69.64;96979.91;4900931;28;20343;-74
2022/04/16 08:45:57;;;;;;;6.13;4.68;;;13.50;62.00;;;11.35;68.86;96978.25;4890374;28;20346;-74
2022/04/16 08:48:26;;;;;;;16.70;7.55;;;13.50;60.30;;;11.44;68.46;96985.09;4873632;28;20317;-74
2022/04/16 08:50:56;;;;;;;6.43;3.90;;;13.80;61.20;;;11.58;67.98;96981.75;4903719;28;20476;-75
2022/04/16 08:53:22;;;;;;;7.35;4.57;;;14.10;59.50;;;11.75;67.60;96981.63;4890501;28;20339;-73
2022/04/16 08:55:48;;;;;;;6.15;3.92;;;14.40;58.00;;;11.94;66.96;96983.84;4868504;28;20351;-68
2022/04/16 08:58:15;;;;;;;5.32;4.10;;;14.60;57.00;;;12.12;66.80;96994.91;4895012;28;20303;-68
2022/04/16 09:00:42;;;;;;;6.70;4.35;;;14.70;56.80;;;12.26;66.18;96990.69;4901788;28;20363;-69
2022/04/16 09:03:09;;;;;;;4.78;4.28;;;14.90;56.60;;;12.38;65.67;96988.44;4900233;28;20439;-67
2022/04/16 09:05:35;;;;;;;4.80;4.05;;;14.90;56.10;;;12.47;65.25;96993.47;4909323;28;20360;-68
2022/04/16 09:08:03;;;;;;;4.95;4.25;;;15.00;56.30;;;12.57;65.06;96994.03;4896818;28;20315;-66
2022/04/16 09:10:31;;;;;;;5.75;4.28;;;15.10;56.40;;;12.70;65.07;96995.25;4885366;28;20398;-67
2022/04/16 09:12:59;;;;;;;7.40;4.63;;;15.30;55.20;;;12.79;64.52;96994.97;4886384;28;20433;-71
2022/04/16 09:15:26;;;;;;;8.77;4.70;;;15.40;54.50;;;12.85;63.70;97001.34;4890248;28;20292;-66
2022/04/16 09:18:08;;;;;;;6.32;4.40;;;15.30;53.80;;;12.89;61.67;97000.81;4899280;28;20375;-65
2022/04/16 09:20:39;;;;;;;6.78;4.30;;;15.10;53.40;;;12.92;62.20;96997.00;4889313;28;20312;-66
2022/04/16 09:23:24;;;;;;;5.00;3.92;;;15.10;53.80;;;12.95;61.54;97003.75;4902350;28;20613;-69
2022/04/16 09:25:50;;;;;;;5.78;3.67;;;15.10;54.40;;;12.95;61.39;97006.38;4888921;28;20436;-68
2022/04/16 09:28:21;;;;;;;5.15;3.30;;;15.10;53.90;;;12.95;61.00;97001.91;4925194;28;20355;-71
2022/04/16 09:30:52;;;;;;;5.13;3.55;;;15.10;53.20;;;12.96;60.23;97003.56;4890496;28;20499;-68
2022/04/16 09:33:20;;;;;;;4.38;3.42;;;15.10;53.00;;;12.95;61.18;97004.56;4915969;28;20500;-68
2022/04/16 09:35:47;;;;;;;5.60;3.60;;;15.10;53.00;;;12.91;60.95;96999.81;4887050;28;20438;-70
2022/04/16 09:38:14;;;;;;;5.65;3.70;;;14.90;53.20;;;12.80;60.01;97007.19;4885533;28;20438;-70
2022/04/16 09:40:41;;;;;;;4.85;3.28;;;14.70;53.20;;;12.72;59.68;97002.00;4891232;28;20386;-70
2022/04/16 09:43:07;;;;;;;3.72;3.30;;;14.50;53.30;;;12.61;60.45;97002.41;4910621;28;20348;-69
2022/04/16 09:45:37;;;;;;;3.22;2.90;;;14.40;54.60;;;12.53;60.54;97008.59;4891303;28;20304;-69
2022/04/16 09:48:03;;;;;;;5.00;3.67;;;14.30;54.90;;;12.47;60.65;97003.22;4898615;28;20351;-68
2022/04/16 09:50:30;;;;;;;4.68;3.35;;;14.30;54.90;;;12.40;60.68;97004.91;4917608;28;20422;-69
2022/04/16 09:52:58;;;;;;;4.78;3.50;;;14.20;54.90;;;12.33;60.60;97004.00;4934116;28;20424;-68
2022/04/16 09:55:25;;;;;;;3.72;3.25;;;14.20;54.90;;;12.31;60.20;97009.44;4895170;28;20552;-67
2022/04/16 09:57:59;;;;;;;4.65;3.55;;;14.20;54.10;;;12.32;59.83;97011.09;4887687;28;20360;-68
2022/04/16 10:00:26;;;;;;;4.90;3.83;;;14.30;54.60;;;12.31;61.10;97012.09;4907270;28;20545;-70
2022/04/16 10:02:55;;;;;;;4.38;3.58;;;14.40;54.90;;;12.29;60.94;97011.44;4930510;28;20707;-70
2022/04/16 10:05:22;;;;;;;4.22;3.80;;;14.20;55.40;;;12.28;61.02;97015.09;4886568;28;20244;-70
2022/04/16 10:07:49;;;;;;;3.85;3.22;;;14.30;55.50;;;12.31;61.20;97019.19;4890656;28;20304;-68
2022/04/16 10:10:18;;;;;;;4.45;3.78;;;14.30;55.20;;;12.35;60.60;97021.28;4893581;28;20314;-69
2022/04/16 10:13:04;;;;;;;4.25;3.50;;;14.40;54.10;;;12.41;60.17;97019.75;4908033;28;20800;-68
2022/04/16 10:15:57;;;;;;;5.95;5.07;;;14.50;53.90;;;12.44;59.61;97017.56;4885476;28;20352;-68
2022/04/16 10:18:24;;;;;;;4.68;3.83;;;14.60;53.20;;;12.57;60.27;97022.25;4905049;28;20311;-70
2022/04/16 10:20:55;;;;;;;4.30;3.58;;;15.00;53.10;;;12.80;59.48;97030.94;4900816;28;20287;-70
2022/04/16 10:23:35;;;;;;;4.78;3.50;;;15.50;50.90;;;12.95;58.85;97027.50;4905864;28;20663;-70
2022/04/16 10:26:10;;;;;;;3.87;3.43;;;15.70;50.40;;;13.16;58.56;97024.97;4898991;28;20560;-69
2022/04/16 10:28:51;;;;;;;4.03;3.33;;;15.90;49.90;;;13.35;57.63;97024.44;4892702;28;20360;-71
2022/04/16 10:31:37;;;;;;;3.92;3.40;;;16.10;49.90;;;13.48;56.59;97021.97;4913032;28;20501;-68
2022/04/16 10:34:07;;;;;;;4.07;3.50;;;16.30;48.90;;;13.67;56.96;97022.41;4914729;28;20383;-68
2022/04/16 10:36:41;;;;;;;3.90;3.25;;;16.40;48.70;;;13.79;56.98;97028.81;4914893;28;20363;-67
2022/04/16 10:39:18;;;;;;;3.80;3.40;;;16.40;47.90;;;13.82;56.43;97031.13;4895480;28;20205;-67
2022/04/16 10:42:08;;;;;;;4.45;3.10;;;16.20;48.70;;;13.82;53.72;97031.13;4898891;28;20488;-67
2022/04/16 10:44:48;;;;;;;3.85;3.30;;;16.10;47.60;;;13.79;55.02;97031.47;4883864;28;20503;-66